KATW

Appleton International Airport

Appleton, Wisconsin, USA
METAR KATW 092145Z 25004KT 10SM SKC M03/M09 A3028
Observed Flight Rules
Dec-9 @ 21:45 UTC (60 minutes ago) Visual Flight Rules
Wind Visibility Clouds
250° at 4 knots 10 miles
  • Clear skies
Temperatures Readings
Current -3°C / 27°F
Dewpoint -9°C / 16°F
Humidity 64%
Altimeter 30.28" Hg
Pressure 1025 hPa
Elevation 280
METAR KATW 092145Z 25004KT 10SM SKC M03/M09 A3028
Observed Flight Rules
Dec-9 @ 21:45 UTC
(60 minutes ago)
VFR
Wind Visibility
250° at 4 knots 10 miles
Clouds
  • Clear skies
Temperature Dewpoint
-3°C / 27°F -9°C / 16°F
Humidity Altimeter Pressure
64% 30.28" Hg 1025 hPa